Ardenvoir, WA

8:59 PM PST on November 28, 2014 (GMT -0800)
KWAENTIA4 | Change Station
CLOSE
Current Station
Personal Weather Station
Location: Entiat, WA
Elevation: 1729 ft
Nearby Weather Stations

Elev 1729 ft 47.89 °N, 120.44 °W | Updated 5 seconds ago

Mostly Cloudy
Mostly Cloudy
33.8 °F
Feels Like 34 °F
N
2.2
Wind Variable Wind from ESE
Gusts 2.9 mph

Today
High -- | Low -- °F
--% Chance of Precip.
Yesterday
High -- | Low -- °F
Precip. -- in
7:25 AM 4:13 PM
Waxing Crescent, 47% visible
Pressure 29.30 in
Visibility -9999.0 miles
Clouds Clear
Windchill 34 °F
Dew Point 33 °F
Humidity 98%
Rainfall 0.87 in
Snow Depth Not available.
UV 0 out of 12
Pollen .30 out of 12
Air Quality Not available.
Flu Activity Not available.
METAR KEAT 290455Z AUTO 28012KT CLR 08/M02 A2929 RMK AO2 SLP921 T00781017

More Conditions Fewer Conditions

Pressure 29.30 in
Visibility -9999.0 miles
Clouds Clear
Windchill 34 °F
Dew Point 33 °F
Humidity 98%
Rainfall 0.87 in
Snow Depth Not available.
UV 0 out of 12
Pollen .30 out of 12
Air Quality Not available.
Flu Activity Not available.
METAR KEAT 290455Z AUTO 28012KT CLR 08/M02 A2929 RMK AO2 SLP921 T00781017

More Conditions Fewer Conditions

10-Day Weather Forecast

Almanac

Astronomy

Nov. 28, 2014 Rise Set
Actual Time
Civil Twilight
Nautical Twilight
Astronomical Twilight
Moon
Length of Visible Light
Length of Day
Tomorrow will be .
, % of the Moon is Illuminated

Today's Extremes

State Highs State Lows

Community

WunderPhotos

Upload Photos

1,774,413 photos uploaded!

WunderBlogs® & News

Nearby

Air Quality

  Air Quality AQ Index Pollutant
Not available.

Snow Depth

Station Depth Elevation

Earthquake Activity

City Distance Mag. Time & Date
Minimum magnitude displayed is 2.5.

Coastal Water Temperatures

Place Temperature

Nearby Weather Stations